sensor_id;sensor_type;location;lat;lon;timestamp;P1;durP1;ratioP1;P2;durP2;ratioP2
5953;SDS011;3002;42.642;24.812;2022-08-19T00:02:01;37.53;;;7.67;;
5953;SDS011;3002;42.642;24.812;2022-08-19T00:04:28;26.60;;;6.10;;
5953;SDS011;3002;42.642;24.812;2022-08-19T00:06:53;31.70;;;6.00;;
5953;SDS011;3002;42.642;24.812;2022-08-19T00:09:19;23.57;;;6.13;;
5953;SDS011;3002;42.642;24.812;2022-08-19T00:11:45;33.70;;;7.30;;
5953;SDS011;3002;42.642;24.812;2022-08-19T00:14:11;22.83;;;6.00;;
5953;SDS011;3002;42.642;24.812;2022-08-19T00:16:37;22.37;;;6.53;;
5953;SDS011;3002;42.642;24.812;2022-08-19T00:19:03;24.57;;;6.20;;
5953;SDS011;3002;42.642;24.812;2022-08-19T00:21:29;21.83;;;5.57;;
5953;SDS011;3002;42.642;24.812;2022-08-19T00:23:55;24.23;;;6.27;;
5953;SDS011;3002;42.642;24.812;2022-08-19T00:26:23;22.27;;;6.27;;
5953;SDS011;3002;42.642;24.812;2022-08-19T00:28:48;39.53;;;7.20;;
5953;SDS011;3002;42.642;24.812;2022-08-19T00:31:14;27.37;;;6.63;;
5953;SDS011;3002;42.642;24.812;2022-08-19T00:33:41;45.77;;;8.93;;
5953;SDS011;3002;42.642;24.812;2022-08-19T00:36:07;25.80;;;6.50;;
5953;SDS011;3002;42.642;24.812;2022-08-19T00:38:33;21.03;;;5.60;;
5953;SDS011;3002;42.642;24.812;2022-08-19T00:40:58;30.97;;;6.33;;
5953;SDS011;3002;42.642;24.812;2022-08-19T00:43:24;27.30;;;6.63;;
5953;SDS011;3002;42.642;24.812;2022-08-19T00:45:51;24.97;;;5.77;;
5953;SDS011;3002;42.642;24.812;2022-08-19T00:48:16;23.93;;;5.67;;
5953;SDS011;3002;42.642;24.812;2022-08-19T00:50:42;22.67;;;6.17;;
5953;SDS011;3002;42.642;24.812;2022-08-19T00:53:09;26.90;;;6.63;;
5953;SDS011;3002;42.642;24.812;2022-08-19T00:55:34;37.97;;;6.93;;
5953;SDS011;3002;42.642;24.812;2022-08-19T00:58:04;26.80;;;6.00;;
5953;SDS011;3002;42.642;24.812;2022-08-19T01:00:31;51.83;;;7.97;;
5953;SDS011;3002;42.642;24.812;2022-08-19T01:02:58;23.93;;;5.97;;
5953;SDS011;3002;42.642;24.812;2022-08-19T01:05:26;38.03;;;6.97;;
5953;SDS011;3002;42.642;24.812;2022-08-19T01:07:53;20.73;;;5.60;;
5953;SDS011;3002;42.642;24.812;2022-08-19T01:10:20;23.07;;;6.00;;
5953;SDS011;3002;42.642;24.812;2022-08-19T01:12:46;30.53;;;6.63;;
5953;SDS011;3002;42.642;24.812;2022-08-19T01:15:12;22.40;;;6.33;;
5953;SDS011;3002;42.642;24.812;2022-08-19T01:17:39;19.93;;;5.00;;
5953;SDS011;3002;42.642;24.812;2022-08-19T01:20:05;25.57;;;7.03;;
5953;SDS011;3002;42.642;24.812;2022-08-19T01:24:57;33.47;;;7.23;;
5953;SDS011;3002;42.642;24.812;2022-08-19T01:27:23;35.70;;;6.83;;
5953;SDS011;3002;42.642;24.812;2022-08-19T01:29:48;20.50;;;6.03;;
5953;SDS011;3002;42.642;24.812;2022-08-19T01:32:15;33.70;;;7.93;;
5953;SDS011;3002;42.642;24.812;2022-08-19T01:34:41;27.73;;;6.33;;
5953;SDS011;3002;42.642;24.812;2022-08-19T01:37:10;32.70;;;7.10;;
5953;SDS011;3002;42.642;24.812;2022-08-19T01:39:36;21.60;;;6.40;;
5953;SDS011;3002;42.642;24.812;2022-08-19T01:42:02;33.10;;;6.73;;
5953;SDS011;3002;42.642;24.812;2022-08-19T01:44:28;29.57;;;6.50;;
5953;SDS011;3002;42.642;24.812;2022-08-19T01:46:53;25.20;;;6.63;;
5953;SDS011;3002;42.642;24.812;2022-08-19T01:49:20;23.73;;;6.13;;
5953;SDS011;3002;42.642;24.812;2022-08-19T01:51:46;23.10;;;6.00;;
5953;SDS011;3002;42.642;24.812;2022-08-19T01:54:12;24.43;;;6.33;;
5953;SDS011;3002;42.642;24.812;2022-08-19T01:56:38;24.77;;;7.10;;
5953;SDS011;3002;42.642;24.812;2022-08-19T01:59:04;28.03;;;6.87;;
5953;SDS011;3002;42.642;24.812;2022-08-19T02:01:30;18.57;;;6.30;;
5953;SDS011;3002;42.642;24.812;2022-08-19T02:03:59;40.00;;;8.27;;
5953;SDS011;3002;42.642;24.812;2022-08-19T02:06:25;21.60;;;6.13;;
5953;SDS011;3002;42.642;24.812;2022-08-19T02:08:52;12.07;;;4.80;;
5953;SDS011;3002;42.642;24.812;2022-08-19T02:11:25;13.30;;;5.20;;
5953;SDS011;3002;42.642;24.812;2022-08-19T02:13:52;25.53;;;6.30;;
5953;SDS011;3002;42.642;24.812;2022-08-19T02:16:18;20.67;;;6.17;;
5953;SDS011;3002;42.642;24.812;2022-08-19T02:18:43;26.53;;;7.03;;
5953;SDS011;3002;42.642;24.812;2022-08-19T02:21:09;30.93;;;7.17;;
5953;SDS011;3002;42.642;24.812;2022-08-19T02:23:35;29.73;;;6.63;;
5953;SDS011;3002;42.642;24.812;2022-08-19T02:26:01;26.40;;;6.80;;
5953;SDS011;3002;42.642;24.812;2022-08-19T02:28:26;28.20;;;7.07;;
5953;SDS011;3002;42.642;24.812;2022-08-19T02:30:51;35.73;;;7.60;;
5953;SDS011;3002;42.642;24.812;2022-08-19T02:33:16;24.93;;;6.83;;
5953;SDS011;3002;42.642;24.812;2022-08-19T02:35:43;23.40;;;6.90;;
5953;SDS011;3002;42.642;24.812;2022-08-19T02:38:08;25.23;;;7.30;;
5953;SDS011;3002;42.642;24.812;2022-08-19T02:40:53;41.33;;;9.80;;
5953;SDS011;3002;42.642;24.812;2022-08-19T02:43:18;27.30;;;7.77;;
5953;SDS011;3002;42.642;24.812;2022-08-19T02:45:45;21.33;;;6.60;;
5953;SDS011;3002;42.642;24.812;2022-08-19T02:48:11;25.70;;;7.40;;
5953;SDS011;3002;42.642;24.812;2022-08-19T02:50:39;24.00;;;7.33;;
5953;SDS011;3002;42.642;24.812;2022-08-19T02:53:05;24.20;;;8.00;;
5953;SDS011;3002;42.642;24.812;2022-08-19T02:55:32;17.70;;;6.47;;
5953;SDS011;3002;42.642;24.812;2022-08-19T02:57:57;25.13;;;7.67;;
5953;SDS011;3002;42.642;24.812;2022-08-19T03:00:22;18.50;;;7.17;;
5953;SDS011;3002;42.642;24.812;2022-08-19T03:02:49;29.87;;;8.27;;
5953;SDS011;3002;42.642;24.812;2022-08-19T03:05:14;36.80;;;8.03;;
5953;SDS011;3002;42.642;24.812;2022-08-19T03:07:39;34.33;;;8.73;;
5953;SDS011;3002;42.642;24.812;2022-08-19T03:10:05;27.73;;;7.70;;
5953;SDS011;3002;42.642;24.812;2022-08-19T03:12:30;29.17;;;8.37;;
5953;SDS011;3002;42.642;24.812;2022-08-19T03:14:56;25.67;;;7.60;;
5953;SDS011;3002;42.642;24.812;2022-08-19T03:17:21;26.03;;;8.53;;
5953;SDS011;3002;42.642;24.812;2022-08-19T03:19:47;20.70;;;7.80;;
5953;SDS011;3002;42.642;24.812;2022-08-19T03:22:12;32.90;;;7.90;;
5953;SDS011;3002;42.642;24.812;2022-08-19T03:24:37;35.77;;;7.20;;
5953;SDS011;3002;42.642;24.812;2022-08-19T03:27:03;37.00;;;8.17;;
5953;SDS011;3002;42.642;24.812;2022-08-19T03:29:30;43.37;;;9.23;;
5953;SDS011;3002;42.642;24.812;2022-08-19T03:31:57;24.33;;;7.20;;
5953;SDS011;3002;42.642;24.812;2022-08-19T03:34:26;23.40;;;8.17;;
5953;SDS011;3002;42.642;24.812;2022-08-19T03:36:52;34.67;;;8.03;;
5953;SDS011;3002;42.642;24.812;2022-08-19T03:39:19;36.63;;;7.63;;
5953;SDS011;3002;42.642;24.812;2022-08-19T03:41:45;25.03;;;7.27;;
5953;SDS011;3002;42.642;24.812;2022-08-19T03:44:10;24.20;;;7.50;;
5953;SDS011;3002;42.642;24.812;2022-08-19T03:46:36;38.33;;;8.03;;
5953;SDS011;3002;42.642;24.812;2022-08-19T03:49:02;45.77;;;8.40;;
5953;SDS011;3002;42.642;24.812;2022-08-19T03:51:33;32.57;;;8.67;;
5953;SDS011;3002;42.642;24.812;2022-08-19T03:54:00;36.03;;;7.93;;
5953;SDS011;3002;42.642;24.812;2022-08-19T03:56:26;31.63;;;7.63;;
5953;SDS011;3002;42.642;24.812;2022-08-19T03:58:53;34.37;;;7.80;;
5953;SDS011;3002;42.642;24.812;2022-08-19T04:01:19;40.43;;;7.80;;
5953;SDS011;3002;42.642;24.812;2022-08-19T04:03:45;48.63;;;9.07;;
5953;SDS011;3002;42.642;24.812;2022-08-19T04:06:20;37.47;;;9.67;;
5953;SDS011;3002;42.642;24.812;2022-08-19T04:08:46;24.30;;;7.80;;
5953;SDS011;3002;42.642;24.812;2022-08-19T04:11:13;44.93;;;8.33;;
5953;SDS011;3002;42.642;24.812;2022-08-19T04:13:39;25.37;;;7.90;;
5953;SDS011;3002;42.642;24.812;2022-08-19T04:16:05;51.87;;;8.47;;
5953;SDS011;3002;42.642;24.812;2022-08-19T04:18:31;229.87;;;16.87;;
5953;SDS011;3002;42.642;24.812;2022-08-19T04:20:58;45.27;;;11.37;;
5953;SDS011;3002;42.642;24.812;2022-08-19T04:23:23;38.80;;;9.43;;
5953;SDS011;3002;42.642;24.812;2022-08-19T04:25:48;32.17;;;8.60;;
5953;SDS011;3002;42.642;24.812;2022-08-19T04:28:14;33.17;;;8.23;;
5953;SDS011;3002;42.642;24.812;2022-08-19T04:30:43;88.87;;;12.30;;
5953;SDS011;3002;42.642;24.812;2022-08-19T04:33:09;44.63;;;9.00;;
5953;SDS011;3002;42.642;24.812;2022-08-19T04:35:39;33.03;;;8.70;;
5953;SDS011;3002;42.642;24.812;2022-08-19T04:38:05;35.40;;;9.07;;
5953;SDS011;3002;42.642;24.812;2022-08-19T04:40:31;93.63;;;11.00;;
5953;SDS011;3002;42.642;24.812;2022-08-19T04:43:14;85.57;;;11.90;;
5953;SDS011;3002;42.642;24.812;2022-08-19T04:45:40;56.40;;;11.07;;
5953;SDS011;3002;42.642;24.812;2022-08-19T04:48:05;48.40;;;9.57;;
5953;SDS011;3002;42.642;24.812;2022-08-19T04:50:31;41.47;;;8.90;;
5953;SDS011;3002;42.642;24.812;2022-08-19T04:52:56;67.67;;;11.87;;
5953;SDS011;3002;42.642;24.812;2022-08-19T04:55:22;44.07;;;9.37;;
5953;SDS011;3002;42.642;24.812;2022-08-19T04:57:48;29.30;;;7.93;;
5953;SDS011;3002;42.642;24.812;2022-08-19T05:00:13;44.63;;;8.30;;
5953;SDS011;3002;42.642;24.812;2022-08-19T05:02:39;32.67;;;8.20;;
5953;SDS011;3002;42.642;24.812;2022-08-19T05:05:04;44.17;;;9.33;;
5953;SDS011;3002;42.642;24.812;2022-08-19T05:07:31;29.27;;;8.40;;
5953;SDS011;3002;42.642;24.812;2022-08-19T05:09:56;37.30;;;9.00;;
5953;SDS011;3002;42.642;24.812;2022-08-19T05:12:22;30.63;;;8.27;;
5953;SDS011;3002;42.642;24.812;2022-08-19T05:14:47;41.63;;;9.43;;
5953;SDS011;3002;42.642;24.812;2022-08-19T05:17:14;35.57;;;8.20;;
5953;SDS011;3002;42.642;24.812;2022-08-19T05:19:39;35.27;;;8.23;;
5953;SDS011;3002;42.642;24.812;2022-08-19T05:22:23;30.87;;;8.33;;
5953;SDS011;3002;42.642;24.812;2022-08-19T05:25:00;42.50;;;8.33;;
5953;SDS011;3002;42.642;24.812;2022-08-19T05:27:26;35.37;;;7.40;;
5953;SDS011;3002;42.642;24.812;2022-08-19T05:29:51;41.33;;;8.87;;
5953;SDS011;3002;42.642;24.812;2022-08-19T05:32:16;35.80;;;8.57;;
5953;SDS011;3002;42.642;24.812;2022-08-19T05:34:43;24.00;;;7.50;;
5953;SDS011;3002;42.642;24.812;2022-08-19T05:37:08;27.73;;;7.47;;
5953;SDS011;3002;42.642;24.812;2022-08-19T05:39:34;29.77;;;6.70;;
5953;SDS011;3002;42.642;24.812;2022-08-19T05:42:04;29.33;;;8.30;;
5953;SDS011;3002;42.642;24.812;2022-08-19T05:44:32;27.50;;;6.77;;
5953;SDS011;3002;42.642;24.812;2022-08-19T05:46:58;34.83;;;8.00;;
5953;SDS011;3002;42.642;24.812;2022-08-19T05:49:24;25.40;;;7.73;;
5953;SDS011;3002;42.642;24.812;2022-08-19T05:51:50;32.00;;;6.57;;
5953;SDS011;3002;42.642;24.812;2022-08-19T05:54:15;31.50;;;7.63;;
5953;SDS011;3002;42.642;24.812;2022-08-19T05:56:41;35.70;;;8.90;;
5953;SDS011;3002;42.642;24.812;2022-08-19T05:59:07;23.67;;;7.60;;
5953;SDS011;3002;42.642;24.812;2022-08-19T06:01:34;37.43;;;7.80;;
5953;SDS011;3002;42.642;24.812;2022-08-19T06:04:00;24.33;;;7.03;;
5953;SDS011;3002;42.642;24.812;2022-08-19T06:06:25;42.60;;;7.57;;
5953;SDS011;3002;42.642;24.812;2022-08-19T06:08:51;25.13;;;6.30;;
5953;SDS011;3002;42.642;24.812;2022-08-19T06:11:20;32.10;;;8.00;;
5953;SDS011;3002;42.642;24.812;2022-08-19T06:13:47;23.53;;;5.63;;
5953;SDS011;3002;42.642;24.812;2022-08-19T06:16:14;31.97;;;7.30;;
5953;SDS011;3002;42.642;24.812;2022-08-19T06:18:47;22.43;;;6.07;;
5953;SDS011;3002;42.642;24.812;2022-08-19T06:21:13;37.17;;;7.73;;
5953;SDS011;3002;42.642;24.812;2022-08-19T06:23:39;22.83;;;6.30;;
5953;SDS011;3002;42.642;24.812;2022-08-19T06:26:04;36.40;;;6.03;;
5953;SDS011;3002;42.642;24.812;2022-08-19T06:28:29;37.13;;;7.87;;
5953;SDS011;3002;42.642;24.812;2022-08-19T06:30:55;22.07;;;6.63;;
5953;SDS011;3002;42.642;24.812;2022-08-19T06:33:20;38.77;;;8.37;;
5953;SDS011;3002;42.642;24.812;2022-08-19T06:35:45;20.20;;;6.27;;
5953;SDS011;3002;42.642;24.812;2022-08-19T06:38:11;27.63;;;6.50;;
5953;SDS011;3002;42.642;24.812;2022-08-19T06:40:36;24.03;;;6.00;;
5953;SDS011;3002;42.642;24.812;2022-08-19T06:43:03;26.77;;;5.70;;
5953;SDS011;3002;42.642;24.812;2022-08-19T06:45:28;25.20;;;5.80;;
5953;SDS011;3002;42.642;24.812;2022-08-19T06:47:53;23.20;;;5.83;;
5953;SDS011;3002;42.642;24.812;2022-08-19T06:50:21;32.63;;;7.20;;
5953;SDS011;3002;42.642;24.812;2022-08-19T06:52:46;30.27;;;6.57;;
5953;SDS011;3002;42.642;24.812;2022-08-19T06:55:12;32.47;;;6.60;;
5953;SDS011;3002;42.642;24.812;2022-08-19T06:57:38;26.70;;;4.60;;
5953;SDS011;3002;42.642;24.812;2022-08-19T07:00:04;22.17;;;5.77;;
5953;SDS011;3002;42.642;24.812;2022-08-19T07:02:30;22.70;;;5.50;;
5953;SDS011;3002;42.642;24.812;2022-08-19T07:04:55;22.70;;;5.33;;
5953;SDS011;3002;42.642;24.812;2022-08-19T07:07:23;20.57;;;5.43;;
5953;SDS011;3002;42.642;24.812;2022-08-19T07:09:49;17.37;;;5.30;;
5953;SDS011;3002;42.642;24.812;2022-08-19T07:12:14;27.80;;;5.63;;
5953;SDS011;3002;42.642;24.812;2022-08-19T07:14:40;26.30;;;5.70;;
5953;SDS011;3002;42.642;24.812;2022-08-19T07:17:07;33.23;;;6.90;;
5953;SDS011;3002;42.642;24.812;2022-08-19T07:19:33;20.80;;;5.87;;
5953;SDS011;3002;42.642;24.812;2022-08-19T07:22:00;61.33;;;9.70;;
5953;SDS011;3002;42.642;24.812;2022-08-19T07:24:29;77.60;;;10.63;;
5953;SDS011;3002;42.642;24.812;2022-08-19T07:26:55;21.03;;;5.17;;
5953;SDS011;3002;42.642;24.812;2022-08-19T07:29:22;22.33;;;5.93;;
5953;SDS011;3002;42.642;24.812;2022-08-19T07:31:48;15.87;;;5.00;;
5953;SDS011;3002;42.642;24.812;2022-08-19T07:34:14;35.57;;;5.90;;
5953;SDS011;3002;42.642;24.812;2022-08-19T07:36:40;17.33;;;4.87;;
5953;SDS011;3002;42.642;24.812;2022-08-19T07:39:08;21.37;;;5.60;;
5953;SDS011;3002;42.642;24.812;2022-08-19T07:41:34;17.60;;;5.13;;
5953;SDS011;3002;42.642;24.812;2022-08-19T07:44:00;29.40;;;6.50;;
5953;SDS011;3002;42.642;24.812;2022-08-19T07:46:32;22.73;;;5.67;;
5953;SDS011;3002;42.642;24.812;2022-08-19T07:48:57;29.87;;;6.67;;
5953;SDS011;3002;42.642;24.812;2022-08-19T07:51:23;34.70;;;7.70;;
5953;SDS011;3002;42.642;24.812;2022-08-19T07:53:48;44.63;;;7.80;;
5953;SDS011;3002;42.642;24.812;2022-08-19T07:56:15;30.67;;;6.87;;
5953;SDS011;3002;42.642;24.812;2022-08-19T07:58:42;17.90;;;4.77;;
5953;SDS011;3002;42.642;24.812;2022-08-19T08:01:09;22.40;;;5.97;;
5953;SDS011;3002;42.642;24.812;2022-08-19T08:03:35;23.73;;;5.27;;
5953;SDS011;3002;42.642;24.812;2022-08-19T08:06:19;27.87;;;6.03;;
5953;SDS011;3002;42.642;24.812;2022-08-19T08:09:03;25.47;;;5.73;;
5953;SDS011;3002;42.642;24.812;2022-08-19T08:11:50;25.60;;;5.70;;
5953;SDS011;3002;42.642;24.812;2022-08-19T08:14:26;29.47;;;6.90;;
5953;SDS011;3002;42.642;24.812;2022-08-19T08:16:52;28.10;;;5.33;;
5953;SDS011;3002;42.642;24.812;2022-08-19T08:19:18;18.23;;;5.00;;
5953;SDS011;3002;42.642;24.812;2022-08-19T08:21:45;26.13;;;6.13;;
5953;SDS011;3002;42.642;24.812;2022-08-19T08:24:11;23.80;;;6.03;;
5953;SDS011;3002;42.642;24.812;2022-08-19T08:26:37;32.90;;;6.33;;
5953;SDS011;3002;42.642;24.812;2022-08-19T08:29:02;35.03;;;7.53;;
5953;SDS011;3002;42.642;24.812;2022-08-19T08:31:28;36.73;;;6.80;;
5953;SDS011;3002;42.642;24.812;2022-08-19T08:33:53;29.30;;;6.40;;
5953;SDS011;3002;42.642;24.812;2022-08-19T08:36:19;24.90;;;5.60;;
5953;SDS011;3002;42.642;24.812;2022-08-19T08:38:45;22.37;;;6.33;;
5953;SDS011;3002;42.642;24.812;2022-08-19T08:43:53;26.17;;;6.17;;
5953;SDS011;3002;42.642;24.812;2022-08-19T08:46:30;26.50;;;5.90;;
5953;SDS011;3002;42.642;24.812;2022-08-19T08:49:04;22.77;;;6.10;;
5953;SDS011;3002;42.642;24.812;2022-08-19T08:51:34;22.60;;;6.67;;
5953;SDS011;3002;42.642;24.812;2022-08-19T08:54:01;35.13;;;7.00;;
5953;SDS011;3002;42.642;24.812;2022-08-19T08:56:26;24.20;;;6.00;;
5953;SDS011;3002;42.642;24.812;2022-08-19T08:58:58;24.10;;;6.43;;
5953;SDS011;3002;42.642;24.812;2022-08-19T09:01:24;18.77;;;5.63;;
5953;SDS011;3002;42.642;24.812;2022-08-19T09:03:50;30.23;;;7.03;;
5953;SDS011;3002;42.642;24.812;2022-08-19T09:11:10;28.07;;;6.57;;
5953;SDS011;3002;42.642;24.812;2022-08-19T09:16:07;16.00;;;5.40;;
5953;SDS011;3002;42.642;24.812;2022-08-19T09:21:09;19.03;;;5.70;;
5953;SDS011;3002;42.642;24.812;2022-08-19T09:23:35;24.37;;;6.10;;
5953;SDS011;3002;42.642;24.812;2022-08-19T09:26:00;17.80;;;5.57;;
5953;SDS011;3002;42.642;24.812;2022-08-19T09:28:26;15.13;;;5.13;;
5953;SDS011;3002;42.642;24.812;2022-08-19T09:30:52;29.87;;;7.20;;
5953;SDS011;3002;42.642;24.812;2022-08-19T09:33:18;48.37;;;9.87;;
5953;SDS011;3002;42.642;24.812;2022-08-19T09:35:43;80.87;;;12.77;;
5953;SDS011;3002;42.642;24.812;2022-08-19T09:38:08;72.63;;;10.77;;
5953;SDS011;3002;42.642;24.812;2022-08-19T09:40:33;70.70;;;11.97;;
5953;SDS011;3002;42.642;24.812;2022-08-19T09:42:59;60.47;;;11.43;;
5953;SDS011;3002;42.642;24.812;2022-08-19T09:45:27;51.57;;;9.80;;
5953;SDS011;3002;42.642;24.812;2022-08-19T09:47:53;57.93;;;10.63;;
5953;SDS011;3002;42.642;24.812;2022-08-19T09:50:18;60.03;;;11.13;;
5953;SDS011;3002;42.642;24.812;2022-08-19T09:52:44;67.03;;;12.33;;
5953;SDS011;3002;42.642;24.812;2022-08-19T09:55:10;65.37;;;11.70;;
5953;SDS011;3002;42.642;24.812;2022-08-19T09:57:35;18.83;;;6.03;;
5953;SDS011;3002;42.642;24.812;2022-08-19T10:00:02;13.73;;;4.80;;
5953;SDS011;3002;42.642;24.812;2022-08-19T10:02:27;21.13;;;4.80;;
5953;SDS011;3002;42.642;24.812;2022-08-19T10:04:53;21.37;;;6.40;;
5953;SDS011;3002;42.642;24.812;2022-08-19T10:07:37;15.03;;;5.47;;
5953;SDS011;3002;42.642;24.812;2022-08-19T10:10:03;13.37;;;4.73;;
5953;SDS011;3002;42.642;24.812;2022-08-19T10:12:28;26.07;;;6.00;;
5953;SDS011;3002;42.642;24.812;2022-08-19T10:14:54;19.77;;;5.87;;
5953;SDS011;3002;42.642;24.812;2022-08-19T10:17:19;29.73;;;6.73;;
5953;SDS011;3002;42.642;24.812;2022-08-19T10:19:45;15.73;;;4.80;;
5953;SDS011;3002;42.642;24.812;2022-08-19T10:22:10;35.07;;;8.07;;
5953;SDS011;3002;42.642;24.812;2022-08-19T10:24:38;28.40;;;6.30;;
5953;SDS011;3002;42.642;24.812;2022-08-19T10:27:03;21.10;;;5.53;;
5953;SDS011;3002;42.642;24.812;2022-08-19T10:29:30;27.90;;;6.87;;
5953;SDS011;3002;42.642;24.812;2022-08-19T10:31:57;21.37;;;6.00;;
5953;SDS011;3002;42.642;24.812;2022-08-19T10:34:23;35.53;;;7.47;;
5953;SDS011;3002;42.642;24.812;2022-08-19T10:36:48;35.50;;;6.93;;
5953;SDS011;3002;42.642;24.812;2022-08-19T10:39:13;15.50;;;4.73;;
5953;SDS011;3002;42.642;24.812;2022-08-19T10:41:39;24.57;;;6.97;;
5953;SDS011;3002;42.642;24.812;2022-08-19T10:44:06;22.10;;;5.60;;
5953;SDS011;3002;42.642;24.812;2022-08-19T10:46:32;25.00;;;5.97;;
5953;SDS011;3002;42.642;24.812;2022-08-19T10:48:58;28.87;;;5.13;;
5953;SDS011;3002;42.642;24.812;2022-08-19T10:51:24;18.33;;;5.30;;
5953;SDS011;3002;42.642;24.812;2022-08-19T10:54:07;20.63;;;4.73;;
5953;SDS011;3002;42.642;24.812;2022-08-19T10:56:33;25.27;;;5.43;;
5953;SDS011;3002;42.642;24.812;2022-08-19T10:59:21;13.97;;;4.40;;
5953;SDS011;3002;42.642;24.812;2022-08-19T11:01:47;16.83;;;4.23;;
5953;SDS011;3002;42.642;24.812;2022-08-19T11:04:12;19.90;;;4.97;;
5953;SDS011;3002;42.642;24.812;2022-08-19T11:06:41;21.90;;;4.50;;
5953;SDS011;3002;42.642;24.812;2022-08-19T11:09:09;19.77;;;5.07;;
5953;SDS011;3002;42.642;24.812;2022-08-19T11:11:35;18.63;;;4.20;;
5953;SDS011;3002;42.642;24.812;2022-08-19T11:14:05;14.03;;;4.10;;
5953;SDS011;3002;42.642;24.812;2022-08-19T11:16:31;13.23;;;3.73;;
5953;SDS011;3002;42.642;24.812;2022-08-19T11:18:57;17.03;;;4.00;;
5953;SDS011;3002;42.642;24.812;2022-08-19T11:21:27;20.73;;;5.20;;
5953;SDS011;3002;42.642;24.812;2022-08-19T11:23:54;15.73;;;4.03;;
5953;SDS011;3002;42.642;24.812;2022-08-19T11:26:20;21.40;;;4.60;;
5953;SDS011;3002;42.642;24.812;2022-08-19T11:28:46;14.83;;;4.30;;
5953;SDS011;3002;42.642;24.812;2022-08-19T11:31:12;19.07;;;4.00;;
5953;SDS011;3002;42.642;24.812;2022-08-19T11:33:37;14.97;;;4.60;;
5953;SDS011;3002;42.642;24.812;2022-08-19T11:36:03;14.77;;;3.90;;
5953;SDS011;3002;42.642;24.812;2022-08-19T11:38:28;12.87;;;3.70;;
5953;SDS011;3002;42.642;24.812;2022-08-19T11:40:59;12.23;;;3.57;;
5953;SDS011;3002;42.642;24.812;2022-08-19T11:43:24;16.47;;;4.00;;
5953;SDS011;3002;42.642;24.812;2022-08-19T11:45:51;17.47;;;4.87;;
5953;SDS011;3002;42.642;24.812;2022-08-19T11:48:16;24.37;;;5.17;;
5953;SDS011;3002;42.642;24.812;2022-08-19T11:50:42;16.33;;;3.77;;
5953;SDS011;3002;42.642;24.812;2022-08-19T11:53:08;18.53;;;4.80;;
5953;SDS011;3002;42.642;24.812;2022-08-19T11:55:37;11.37;;;4.17;;
5953;SDS011;3002;42.642;24.812;2022-08-19T11:58:03;23.77;;;4.10;;
5953;SDS011;3002;42.642;24.812;2022-08-19T12:00:31;20.10;;;4.67;;
5953;SDS011;3002;42.642;24.812;2022-08-19T12:02:56;14.40;;;4.53;;
5953;SDS011;3002;42.642;24.812;2022-08-19T12:05:22;13.20;;;3.77;;
5953;SDS011;3002;42.642;24.812;2022-08-19T12:07:47;15.80;;;4.27;;
5953;SDS011;3002;42.642;24.812;2022-08-19T12:10:12;22.07;;;5.07;;
5953;SDS011;3002;42.642;24.812;2022-08-19T12:12:37;10.37;;;3.63;;
5953;SDS011;3002;42.642;24.812;2022-08-19T12:15:08;12.67;;;3.77;;
5953;SDS011;3002;42.642;24.812;2022-08-19T12:17:33;16.93;;;4.50;;
5953;SDS011;3002;42.642;24.812;2022-08-19T12:19:58;20.33;;;5.00;;
5953;SDS011;3002;42.642;24.812;2022-08-19T12:22:24;16.43;;;4.30;;
5953;SDS011;3002;42.642;24.812;2022-08-19T12:24:49;20.07;;;5.07;;
5953;SDS011;3002;42.642;24.812;2022-08-19T12:27:17;17.07;;;5.23;;
5953;SDS011;3002;42.642;24.812;2022-08-19T12:29:43;18.13;;;5.60;;
5953;SDS011;3002;42.642;24.812;2022-08-19T12:34:43;30.87;;;8.30;;
5953;SDS011;3002;42.642;24.812;2022-08-19T12:37:09;80.60;;;17.27;;
5953;SDS011;3002;42.642;24.812;2022-08-19T12:39:37;13.00;;;3.70;;
5953;SDS011;3002;42.642;24.812;2022-08-19T12:42:03;6.83;;;3.27;;
5953;SDS011;3002;42.642;24.812;2022-08-19T12:44:29;10.23;;;3.40;;
5953;SDS011;3002;42.642;24.812;2022-08-19T12:46:56;13.20;;;4.17;;
5953;SDS011;3002;42.642;24.812;2022-08-19T12:49:21;7.30;;;3.47;;
5953;SDS011;3002;42.642;24.812;2022-08-19T12:51:46;10.07;;;3.60;;
5953;SDS011;3002;42.642;24.812;2022-08-19T12:54:12;8.43;;;3.03;;
5953;SDS011;3002;42.642;24.812;2022-08-19T12:56:37;16.40;;;3.80;;
5953;SDS011;3002;42.642;24.812;2022-08-19T12:59:03;9.17;;;2.70;;
5953;SDS011;3002;42.642;24.812;2022-08-19T13:01:28;14.93;;;3.23;;
5953;SDS011;3002;42.642;24.812;2022-08-19T13:03:57;8.23;;;3.60;;
5953;SDS011;3002;42.642;24.812;2022-08-19T13:06:23;10.20;;;4.03;;
5953;SDS011;3002;42.642;24.812;2022-08-19T13:08:48;9.10;;;3.77;;
5953;SDS011;3002;42.642;24.812;2022-08-19T13:11:14;9.90;;;4.00;;
5953;SDS011;3002;42.642;24.812;2022-08-19T13:13:40;10.33;;;4.00;;
5953;SDS011;3002;42.642;24.812;2022-08-19T13:16:07;18.50;;;4.80;;
5953;SDS011;3002;42.642;24.812;2022-08-19T13:18:32;10.23;;;3.80;;
5953;SDS011;3002;42.642;24.812;2022-08-19T13:21:01;5.83;;;2.80;;
5953;SDS011;3002;42.642;24.812;2022-08-19T13:23:28;9.00;;;3.90;;
5953;SDS011;3002;42.642;24.812;2022-08-19T13:25:57;7.80;;;3.53;;
5953;SDS011;3002;42.642;24.812;2022-08-19T13:28:22;11.10;;;3.80;;
5953;SDS011;3002;42.642;24.812;2022-08-19T13:30:48;17.23;;;5.43;;
5953;SDS011;3002;42.642;24.812;2022-08-19T13:33:32;8.93;;;3.30;;
5953;SDS011;3002;42.642;24.812;2022-08-19T13:35:59;9.87;;;3.20;;
5953;SDS011;3002;42.642;24.812;2022-08-19T13:38:25;13.63;;;4.60;;
5953;SDS011;3002;42.642;24.812;2022-08-19T13:40:51;11.77;;;4.47;;
5953;SDS011;3002;42.642;24.812;2022-08-19T13:43:17;13.03;;;3.77;;
5953;SDS011;3002;42.642;24.812;2022-08-19T13:45:44;12.57;;;5.00;;
5953;SDS011;3002;42.642;24.812;2022-08-19T13:48:10;11.40;;;4.70;;
5953;SDS011;3002;42.642;24.812;2022-08-19T13:50:40;15.50;;;5.43;;
5953;SDS011;3002;42.642;24.812;2022-08-19T13:53:06;11.93;;;3.90;;
5953;SDS011;3002;42.642;24.812;2022-08-19T13:55:32;20.67;;;5.03;;
5953;SDS011;3002;42.642;24.812;2022-08-19T13:57:59;14.23;;;4.73;;
5953;SDS011;3002;42.642;24.812;2022-08-19T14:00:27;13.73;;;4.17;;
5953;SDS011;3002;42.642;24.812;2022-08-19T14:02:54;11.27;;;4.30;;
5953;SDS011;3002;42.642;24.812;2022-08-19T14:05:20;10.80;;;4.20;;
5953;SDS011;3002;42.642;24.812;2022-08-19T14:07:46;10.47;;;4.10;;
5953;SDS011;3002;42.642;24.812;2022-08-19T14:10:12;17.03;;;5.40;;
5953;SDS011;3002;42.642;24.812;2022-08-19T14:12:38;9.83;;;4.03;;
5953;SDS011;3002;42.642;24.812;2022-08-19T14:15:05;22.63;;;5.27;;
5953;SDS011;3002;42.642;24.812;2022-08-19T14:17:30;9.37;;;4.00;;
5953;SDS011;3002;42.642;24.812;2022-08-19T14:19:56;9.60;;;3.87;;
5953;SDS011;3002;42.642;24.812;2022-08-19T14:22:22;10.93;;;4.40;;
5953;SDS011;3002;42.642;24.812;2022-08-19T14:24:47;19.93;;;5.10;;
5953;SDS011;3002;42.642;24.812;2022-08-19T14:27:13;10.50;;;4.30;;
5953;SDS011;3002;42.642;24.812;2022-08-19T14:29:38;21.50;;;5.90;;
5953;SDS011;3002;42.642;24.812;2022-08-19T14:32:04;12.10;;;3.83;;
5953;SDS011;3002;42.642;24.812;2022-08-19T14:34:29;9.90;;;3.87;;
5953;SDS011;3002;42.642;24.812;2022-08-19T14:36:57;29.53;;;6.60;;
5953;SDS011;3002;42.642;24.812;2022-08-19T14:39:26;13.53;;;5.07;;
5953;SDS011;3002;42.642;24.812;2022-08-19T14:41:52;13.63;;;4.90;;
5953;SDS011;3002;42.642;24.812;2022-08-19T14:44:18;19.40;;;4.63;;
5953;SDS011;3002;42.642;24.812;2022-08-19T14:46:44;20.43;;;6.20;;
5953;SDS011;3002;42.642;24.812;2022-08-19T14:49:10;14.87;;;4.17;;
5953;SDS011;3002;42.642;24.812;2022-08-19T14:51:37;26.13;;;6.00;;
5953;SDS011;3002;42.642;24.812;2022-08-19T14:54:02;10.33;;;4.43;;
5953;SDS011;3002;42.642;24.812;2022-08-19T14:56:28;45.77;;;11.50;;
5953;SDS011;3002;42.642;24.812;2022-08-19T14:58:54;22.20;;;6.17;;
5953;SDS011;3002;42.642;24.812;2022-08-19T15:01:21;32.10;;;8.00;;
5953;SDS011;3002;42.642;24.812;2022-08-19T15:03:46;24.53;;;7.10;;